createdAt,value
2023-04-21T00:00:36.209Z,96387.84
2023-04-21T00:03:08.461Z,96390.22
2023-04-21T00:05:40.630Z,96389.16
2023-04-21T00:08:12.508Z,96385.47
2023-04-21T00:10:44.978Z,96386.56
2023-04-21T00:13:16.742Z,96376.81
2023-04-21T00:15:48.449Z,96385.97
2023-04-21T00:18:20.102Z,96383.50
2023-04-21T00:20:51.710Z,96391.03
2023-04-21T00:23:23.428Z,96391.59
2023-04-21T00:25:55.057Z,96388.56
2023-04-21T00:28:26.711Z,96382.75
2023-04-21T00:30:58.419Z,96388.63
2023-04-21T00:33:30.859Z,96383.81
2023-04-21T00:36:02.530Z,96382.03
2023-04-21T00:38:34.324Z,96375.94
2023-04-21T00:41:06.113Z,96381.72
2023-04-21T00:43:38.158Z,96370.41
2023-04-21T00:46:09.828Z,96374.81
2023-04-21T00:48:43.934Z,96366.25
2023-04-21T00:51:15.712Z,96363.69
2023-04-21T00:53:47.812Z,96361.41
2023-04-21T00:56:19.776Z,96369.31
2023-04-21T00:58:53.779Z,96361.69
2023-04-21T01:01:26.789Z,96357.13
2023-04-21T01:04:00.151Z,96360.59
2023-04-21T01:06:33.436Z,96359.72
2023-04-21T01:09:05.269Z,96364.53
2023-04-21T01:11:37.196Z,96356.50
2023-04-21T01:14:08.878Z,96362.47
2023-04-21T01:16:42.449Z,96351.28
2023-04-21T01:19:14.204Z,96354.09
2023-04-21T01:21:47.022Z,96357.63
2023-04-21T01:24:18.743Z,96353.31
2023-04-21T01:26:50.797Z,96350.13
2023-04-21T01:29:22.902Z,96350.69
2023-04-21T01:31:54.780Z,96351.72
2023-04-21T01:34:26.663Z,96351.53
2023-04-21T01:36:58.480Z,96351.84
2023-04-21T01:39:30.559Z,96356.28
2023-04-21T01:42:02.331Z,96355.28
2023-04-21T01:44:34.706Z,96355.13
2023-04-21T01:47:07.206Z,96351.63
2023-04-21T01:49:39.257Z,96354.50
2023-04-21T01:52:11.122Z,96354.09
2023-04-21T01:54:43.031Z,96356.59
2023-04-21T01:57:15.743Z,96356.06
2023-04-21T01:59:47.682Z,96356.91
2023-04-21T02:02:19.584Z,96347.41
2023-04-21T02:04:51.315Z,96341.97
2023-04-21T02:07:23.165Z,96347.97
2023-04-21T02:09:55.023Z,96355.91
2023-04-21T02:12:26.845Z,96352.91
2023-04-21T02:14:58.870Z,96346.50
2023-04-21T02:17:30.870Z,96348.03
2023-04-21T02:20:04.099Z,96348.28
2023-04-21T02:22:36.094Z,96344.75
2023-04-21T02:25:08.830Z,96339.44
2023-04-21T02:27:40.615Z,96347.16
2023-04-21T02:30:13.125Z,96344.19
2023-04-21T02:32:47.160Z,96348.13
2023-04-21T02:35:18.971Z,96341.81
2023-04-21T02:37:50.705Z,96350.91
2023-04-21T02:40:22.483Z,96347.88
2023-04-21T02:42:56.609Z,96355.63
2023-04-21T02:45:30.117Z,96355.16
2023-04-21T02:48:01.850Z,96353.78
2023-04-21T02:50:35.287Z,96359.38
2023-04-21T02:53:07.524Z,96355.97
2023-04-21T02:55:39.102Z,96354.72
2023-04-21T02:58:10.926Z,96349.25
2023-04-21T03:00:42.707Z,96348.97
2023-04-21T03:03:16.049Z,96357.72
2023-04-21T03:05:47.838Z,96359.41
2023-04-21T03:08:19.402Z,96352.56
2023-04-21T03:10:51.065Z,96356.69
2023-04-21T03:13:23.883Z,96357.47
2023-04-21T03:15:56.178Z,96363.94
2023-04-21T03:18:27.887Z,96375.66
2023-04-21T03:21:00.443Z,96380.25
2023-04-21T03:23:32.346Z,96383.78
2023-04-21T03:26:08.196Z,96376.13
2023-04-21T03:28:40.364Z,96373.47
2023-04-21T03:31:12.342Z,96364.41
2023-04-21T03:33:44.079Z,96364.25
2023-04-21T03:36:15.961Z,96364.16
2023-04-21T03:38:47.745Z,96368.03
2023-04-21T03:41:19.728Z,96374.31
2023-04-21T03:43:53.093Z,96373.63
2023-04-21T03:46:25.373Z,96366.59
2023-04-21T03:48:57.145Z,96357.56
2023-04-21T03:51:29.174Z,96350.00
2023-04-21T03:54:00.854Z,96351.25
2023-04-21T03:56:32.952Z,96351.06
2023-04-21T03:59:04.768Z,96348.81
2023-04-21T04:01:37.529Z,96346.44
2023-04-21T04:04:09.442Z,96345.25
2023-04-21T04:06:41.329Z,96353.88
2023-04-21T04:09:13.159Z,96363.72
2023-04-21T04:11:44.917Z,96373.19
2023-04-21T04:14:20.857Z,96367.47
2023-04-21T04:16:52.708Z,96374.28
2023-04-21T04:19:30.551Z,96365.63
2023-04-21T04:22:02.474Z,96371.69
2023-04-21T04:24:34.294Z,96366.19
2023-04-21T04:27:06.043Z,96365.56
2023-04-21T04:29:38.337Z,96371.34
2023-04-21T04:32:10.275Z,96381.91
2023-04-21T04:34:41.981Z,96374.28
2023-04-21T04:37:13.867Z,96374.81
2023-04-21T04:39:45.715Z,96383.78
2023-04-21T04:42:17.460Z,96377.53
2023-04-21T04:44:49.143Z,96382.28
2023-04-21T04:47:21.081Z,96380.31
2023-04-21T04:49:52.779Z,96365.03
2023-04-21T04:52:24.794Z,96374.28
2023-04-21T04:54:56.582Z,96373.09
2023-04-21T04:57:28.700Z,96380.56
2023-04-21T05:00:00.412Z,96379.31
2023-04-21T05:02:32.806Z,96380.38
2023-04-21T05:05:06.109Z,96382.91
2023-04-21T05:07:38.022Z,96380.91
2023-04-21T05:10:09.766Z,96384.84
2023-04-21T05:12:41.344Z,96385.47
2023-04-21T05:15:12.967Z,96387.31
2023-04-21T05:17:44.564Z,96378.03
2023-04-21T05:20:16.257Z,96370.31
2023-04-21T05:22:47.889Z,96376.66
2023-04-21T05:25:19.651Z,96368.09
2023-04-21T05:27:51.202Z,96368.31
2023-04-21T05:30:23.041Z,96371.47
2023-04-21T05:32:54.674Z,96368.25
2023-04-21T05:35:26.366Z,96373.50
2023-04-21T05:37:58.181Z,96374.13
2023-04-21T05:40:29.853Z,96385.91
2023-04-21T05:43:01.555Z,96405.03
2023-04-21T05:45:33.274Z,96405.59
2023-04-21T05:48:05.409Z,96384.56
2023-04-21T05:50:37.186Z,96386.75
2023-04-21T05:53:08.967Z,96373.19
2023-04-21T05:55:40.683Z,96375.09
2023-04-21T05:58:12.698Z,96363.34
2023-04-21T06:00:44.462Z,96360.22
2023-04-21T06:03:16.456Z,96367.34
2023-04-21T06:05:54.080Z,96392.06
2023-04-21T06:08:25.808Z,96400.16
2023-04-21T06:10:57.823Z,96401.38
2023-04-21T06:13:31.774Z,96399.63
2023-04-21T06:16:04.542Z,96404.91
2023-04-21T06:18:36.309Z,96388.75
2023-04-21T06:21:07.958Z,96389.09
2023-04-21T06:23:39.641Z,96377.97
2023-04-21T06:26:11.436Z,96369.03
2023-04-21T06:28:43.104Z,96360.56
2023-04-21T06:31:14.797Z,96335.31
2023-04-21T06:33:46.468Z,96322.38
2023-04-21T06:36:18.361Z,96341.16
2023-04-21T06:38:50.115Z,96350.28
2023-04-21T06:41:22.976Z,96357.72
2023-04-21T06:43:56.477Z,96370.09
2023-04-21T06:46:28.753Z,96375.69
2023-04-21T06:49:00.517Z,96373.66
2023-04-21T06:51:32.411Z,96369.94
2023-04-21T06:54:04.199Z,96371.91
2023-04-21T06:56:35.950Z,96370.44
2023-04-21T06:59:07.741Z,96375.66
2023-04-21T07:01:39.634Z,96379.88
2023-04-21T07:04:11.515Z,96388.50
2023-04-21T07:06:43.547Z,96384.50
2023-04-21T07:09:15.458Z,96390.03
2023-04-21T07:11:47.149Z,96381.94
2023-04-21T07:14:19.038Z,96368.19
2023-04-21T07:16:50.812Z,96366.06
2023-04-21T07:19:23.330Z,96361.41
2023-04-21T07:21:55.037Z,96359.91
2023-04-21T07:24:27.450Z,96359.00
2023-04-21T07:26:59.542Z,96361.03
2023-04-21T07:29:32.573Z,96355.81
2023-04-21T07:32:05.376Z,96353.59
2023-04-21T07:34:37.453Z,96372.75
2023-04-21T07:37:10.730Z,96372.09
2023-04-21T07:39:42.499Z,96361.69
2023-04-21T07:42:14.214Z,96353.03
2023-04-21T07:44:46.244Z,96362.28
2023-04-21T07:47:17.829Z,96381.22
2023-04-21T07:49:49.536Z,96385.78
2023-04-21T07:52:21.350Z,96386.03
2023-04-21T07:54:53.075Z,96382.50
2023-04-21T07:57:24.616Z,96378.19
2023-04-21T07:59:56.336Z,96369.34
2023-04-21T08:02:28.008Z,96374.91
2023-04-21T08:04:59.955Z,96377.69
2023-04-21T08:07:31.785Z,96369.03
2023-04-21T08:10:03.923Z,96368.41
2023-04-21T08:12:35.753Z,96359.13
2023-04-21T08:15:07.845Z,96361.66
2023-04-21T08:17:39.455Z,96374.25
2023-04-21T08:20:12.031Z,96376.63
2023-04-21T08:22:44.913Z,96367.03
2023-04-21T08:25:18.429Z,96377.94
2023-04-21T08:27:50.224Z,96379.28
2023-04-21T08:30:22.022Z,96384.75
2023-04-21T08:32:54.136Z,96391.13
2023-04-21T08:35:25.969Z,96385.81
2023-04-21T08:38:00.662Z,96378.81
2023-04-21T08:40:34.199Z,96384.44
2023-04-21T08:43:06.430Z,96398.75
2023-04-21T08:45:39.871Z,96391.53
2023-04-21T08:48:14.134Z,96394.97
2023-04-21T08:50:49.854Z,96401.38
2023-04-21T08:53:21.797Z,96408.47
2023-04-21T08:56:10.030Z,96403.25
2023-04-21T08:58:43.271Z,96396.97
2023-04-21T09:01:15.029Z,96399.00
2023-04-21T09:03:46.985Z,96394.28
2023-04-21T09:06:19.141Z,96398.81
2023-04-21T09:08:54.985Z,96399.88
2023-04-21T09:11:33.307Z,96396.31
2023-04-21T09:14:05.969Z,96416.34
2023-04-21T09:16:37.811Z,96424.19
2023-04-21T09:19:15.650Z,96422.47
2023-04-21T09:21:47.428Z,96440.78
2023-04-21T09:24:19.385Z,96436.97
2023-04-21T09:26:52.343Z,96451.13
2023-04-21T09:29:26.141Z,96457.56
2023-04-21T09:31:57.974Z,96453.63
2023-04-21T09:34:29.728Z,96454.09
2023-04-21T09:37:05.243Z,96457.88
2023-04-21T09:39:49.646Z,96467.78
2023-04-21T09:42:30.371Z,96475.59
2023-04-21T09:45:29.014Z,96470.59
2023-04-21T09:47:58.821Z,96437.16
2023-04-21T09:51:11.446Z,96401.31
2023-04-21T09:53:29.451Z,96423.84
2023-04-21T09:56:04.216Z,96428.44
2023-04-21T09:58:44.121Z,96428.72
2023-04-21T10:01:16.246Z,96422.91
2023-04-21T10:03:49.077Z,96417.56
2023-04-21T10:06:21.643Z,96412.50
2023-04-21T10:08:57.255Z,96410.75
2023-04-21T10:11:29.913Z,96426.94
2023-04-21T10:14:03.215Z,96426.22
2023-04-21T10:16:38.018Z,96420.69
2023-04-21T10:19:27.730Z,96439.47
2023-04-21T10:21:59.577Z,96439.03
2023-04-21T10:24:31.355Z,96437.28
2023-04-21T10:27:03.092Z,96435.22
2023-04-21T10:32:09.669Z,96436.66
2023-04-21T10:34:41.509Z,96421.44
2023-04-21T10:37:17.241Z,96406.25
2023-04-21T10:39:54.489Z,96417.03
2023-04-21T10:42:29.567Z,96425.75
2023-04-21T10:45:06.612Z,96438.88
2023-04-21T10:47:40.954Z,96444.81
2023-04-21T10:50:23.136Z,96455.09
2023-04-21T10:52:57.680Z,96430.03
2023-04-21T10:55:30.140Z,96428.00
2023-04-21T10:58:05.036Z,96422.75
2023-04-21T11:00:37.760Z,96406.81
2023-04-21T11:03:09.744Z,96390.63
2023-04-21T11:05:41.902Z,96398.53
2023-04-21T11:08:15.522Z,96397.59
2023-04-21T11:10:51.524Z,96397.25
2023-04-21T11:13:28.080Z,96401.84
2023-04-21T11:16:07.444Z,96401.53
2023-04-21T11:18:45.015Z,96395.69
2023-04-21T11:21:18.895Z,96378.28
2023-04-21T11:23:55.581Z,96380.06
2023-04-21T11:26:36.539Z,96375.09
2023-04-21T11:29:10.150Z,96375.72
2023-04-21T11:31:44.304Z,96364.44
2023-04-21T11:34:20.181Z,96385.94
2023-04-21T11:36:52.843Z,96385.56
2023-04-21T11:39:24.741Z,96388.59
2023-04-21T11:41:59.367Z,96389.63
2023-04-21T11:44:38.378Z,96401.06
2023-04-21T11:47:25.419Z,96391.22
2023-04-21T11:49:59.338Z,96388.59
2023-04-21T11:52:33.519Z,96375.63
2023-04-21T11:55:16.438Z,96375.53
2023-04-21T11:57:50.440Z,96377.72
2023-04-21T12:00:22.577Z,96384.13
2023-04-21T12:02:56.538Z,96387.78
2023-04-21T12:05:36.435Z,96375.28
2023-04-21T12:08:14.852Z,96395.69
2023-04-21T12:10:48.710Z,96399.88
2023-04-21T12:13:24.279Z,96397.56
2023-04-21T12:15:56.239Z,96390.81
2023-04-21T12:18:28.554Z,96396.22
2023-04-21T12:21:02.217Z,96394.66
2023-04-21T12:23:34.193Z,96393.19
2023-04-21T12:26:05.893Z,96389.03
2023-04-21T12:28:39.183Z,96395.22
2023-04-21T12:31:11.132Z,96403.25
2023-04-21T12:33:42.865Z,96402.28
2023-04-21T12:36:15.293Z,96397.13
2023-04-21T12:38:47.066Z,96402.19
2023-04-21T12:41:19.012Z,96402.31
2023-04-21T12:43:50.626Z,96400.91
2023-04-21T12:46:22.576Z,96398.91
2023-04-21T12:48:54.452Z,96391.81
2023-04-21T12:51:26.194Z,96393.72
2023-04-21T12:53:57.769Z,96403.38
2023-04-21T12:56:30.078Z,96391.88
2023-04-21T12:59:01.813Z,96389.28
2023-04-21T13:01:33.578Z,96384.66
2023-04-21T13:04:05.733Z,96380.69
2023-04-21T13:06:39.256Z,96385.59
2023-04-21T13:09:10.975Z,96383.50
2023-04-21T13:11:42.710Z,96389.81
2023-04-21T13:14:14.417Z,96388.16
2023-04-21T13:16:46.628Z,96381.75
2023-04-21T13:19:18.443Z,96389.34
2023-04-21T13:21:51.503Z,96384.56
2023-04-21T13:24:25.298Z,96388.63
2023-04-21T13:26:57.056Z,96382.81
2023-04-21T13:29:29.024Z,96379.38
2023-04-21T13:32:02.815Z,96374.63
2023-04-21T13:34:35.071Z,96375.22
2023-04-21T13:37:07.038Z,96368.22
2023-04-21T13:39:38.915Z,96372.72
2023-04-21T13:42:10.730Z,96373.84
2023-04-21T13:44:42.468Z,96375.00
2023-04-21T13:47:14.881Z,96362.31
2023-04-21T13:49:46.934Z,96368.81
2023-04-21T13:52:18.667Z,96373.22
2023-04-21T13:54:52.127Z,96372.28
2023-04-21T13:57:24.755Z,96363.13
2023-04-21T13:59:56.642Z,96360.28
2023-04-21T14:02:28.536Z,96360.22
2023-04-21T14:05:00.636Z,96361.16
2023-04-21T14:07:32.625Z,96358.38
2023-04-21T14:10:04.842Z,96361.94
2023-04-21T14:12:36.725Z,96357.72
2023-04-21T14:15:08.629Z,96362.63
2023-04-21T14:17:41.918Z,96363.72
2023-04-21T14:20:13.744Z,96363.56
2023-04-21T14:22:45.473Z,96352.06
2023-04-21T14:25:17.249Z,96348.69
2023-04-21T14:27:49.354Z,96345.50
2023-04-21T14:30:21.454Z,96341.03
2023-04-21T14:32:53.277Z,96348.44
2023-04-21T14:35:25.137Z,96339.47
2023-04-21T14:38:00.177Z,96344.56
2023-04-21T14:40:32.127Z,96339.91
2023-04-21T14:43:04.078Z,96337.38
2023-04-21T14:45:36.132Z,96331.94
2023-04-21T14:48:08.426Z,96339.09
2023-04-21T14:50:41.294Z,96329.91
2023-04-21T14:53:13.564Z,96325.56
2023-04-21T14:55:45.302Z,96330.63
2023-04-21T14:58:17.389Z,96328.97
2023-04-21T15:00:50.329Z,96336.25
2023-04-21T15:03:22.270Z,96330.78
2023-04-21T15:05:54.090Z,96329.16
2023-04-21T15:08:26.217Z,96337.81
2023-04-21T15:10:58.142Z,96347.22
2023-04-21T15:13:29.876Z,96345.72
2023-04-21T15:16:01.494Z,96346.84
2023-04-21T15:18:33.039Z,96343.19
2023-04-21T15:21:04.840Z,96341.63
2023-04-21T15:23:36.500Z,96334.84
2023-04-21T15:26:09.623Z,96342.72
2023-04-21T15:28:41.411Z,96341.59
2023-04-21T15:31:13.016Z,96331.19
2023-04-21T15:33:44.776Z,96329.72
2023-04-21T15:36:16.355Z,96332.28
2023-04-21T15:38:47.928Z,96331.16
2023-04-21T15:41:19.669Z,96332.22
2023-04-21T15:43:52.047Z,96327.28
2023-04-21T15:46:23.943Z,96329.41
2023-04-21T15:48:55.698Z,96337.34
2023-04-21T15:51:29.060Z,96341.25
2023-04-21T15:54:00.900Z,96337.06
2023-04-21T15:56:32.587Z,96329.88
2023-04-21T15:59:04.515Z,96326.66
2023-04-21T16:01:36.348Z,96330.06
2023-04-21T16:04:08.586Z,96332.47
2023-04-21T16:06:40.598Z,96332.97
2023-04-21T16:09:13.008Z,96324.72
2023-04-21T16:11:44.990Z,96328.09
2023-04-21T16:14:17.605Z,96331.03
2023-04-21T16:16:49.368Z,96332.66
2023-04-21T16:19:22.180Z,96331.06
2023-04-21T16:21:53.898Z,96330.94
2023-04-21T16:24:26.279Z,96338.00
2023-04-21T16:26:57.952Z,96334.84
2023-04-21T16:29:30.138Z,96335.31
2023-04-21T16:32:02.073Z,96348.75
2023-04-21T16:34:33.907Z,96341.03
2023-04-21T16:37:05.716Z,96343.50
2023-04-21T16:39:37.760Z,96343.78
2023-04-21T16:42:09.679Z,96339.59
2023-04-21T16:44:41.594Z,96335.44
2023-04-21T16:47:13.618Z,96330.31
2023-04-21T16:49:45.421Z,96332.00
2023-04-21T16:52:17.282Z,96342.81
2023-04-21T16:54:48.967Z,96341.03
2023-04-21T16:57:21.050Z,96334.38
2023-04-21T16:59:53.093Z,96333.88
2023-04-21T17:02:25.641Z,96324.94
2023-04-21T17:04:57.385Z,96327.59
2023-04-21T17:07:29.525Z,96330.00
2023-04-21T17:10:01.557Z,96330.16
2023-04-21T17:12:33.697Z,96331.56
2023-04-21T17:15:05.883Z,96321.00
2023-04-21T17:17:41.286Z,96320.22
2023-04-21T17:20:14.369Z,96334.56
2023-04-21T17:22:46.145Z,96323.00
2023-04-21T17:25:18.590Z,96330.06
2023-04-21T17:27:50.342Z,96330.59
2023-04-21T17:30:22.220Z,96328.81
2023-04-21T17:33:03.980Z,96330.72
2023-04-21T17:35:45.992Z,96331.50
2023-04-21T17:38:24.350Z,96341.56
2023-04-21T17:40:56.111Z,96343.19
2023-04-21T17:43:28.201Z,96335.91
2023-04-21T17:46:00.229Z,96340.38
2023-04-21T17:48:32.013Z,96342.44
2023-04-21T17:51:03.905Z,96331.31
2023-04-21T17:53:35.632Z,96332.00
2023-04-21T17:56:08.066Z,96335.91
2023-04-21T17:58:40.807Z,96336.66
2023-04-21T18:01:12.460Z,96333.28
2023-04-21T18:03:44.217Z,96343.53
2023-04-21T18:06:16.090Z,96335.47
2023-04-21T18:08:47.812Z,96334.25
2023-04-21T18:11:19.497Z,96338.75
2023-04-21T18:13:51.157Z,96336.53
2023-04-21T18:16:22.875Z,96343.50
2023-04-21T18:18:54.525Z,96340.03
2023-04-21T18:21:26.322Z,96340.78
2023-04-21T18:23:58.261Z,96346.69
2023-04-21T18:26:29.872Z,96345.72
2023-04-21T18:29:02.033Z,96340.22
2023-04-21T18:31:33.837Z,96339.13
2023-04-21T18:34:05.537Z,96342.59
2023-04-21T18:36:38.639Z,96347.63
2023-04-21T18:39:11.011Z,96344.00
2023-04-21T18:41:42.730Z,96347.78
2023-04-21T18:44:15.887Z,96362.44
2023-04-21T18:46:47.568Z,96360.88
2023-04-21T18:49:19.541Z,96360.22
2023-04-21T18:51:51.248Z,96364.34
2023-04-21T18:54:23.083Z,96366.53
2023-04-21T18:56:54.767Z,96365.09
2023-04-21T18:59:26.650Z,96367.16
2023-04-21T19:01:58.653Z,96367.50
2023-04-21T19:04:30.674Z,96362.41
2023-04-21T19:07:02.401Z,96371.88
2023-04-21T19:09:34.195Z,96366.47
2023-04-21T19:12:07.576Z,96377.31
2023-04-21T19:14:46.559Z,96378.13
2023-04-21T19:17:19.418Z,96379.81
2023-04-21T19:19:51.209Z,96377.97
2023-04-21T19:22:23.028Z,96378.38
2023-04-21T19:24:54.859Z,96375.78
2023-04-21T19:27:26.682Z,96377.13
2023-04-21T19:29:58.852Z,96369.88
2023-04-21T19:32:30.922Z,96376.81
2023-04-21T19:35:02.705Z,96380.59
2023-04-21T19:37:35.266Z,96378.09
2023-04-21T19:40:08.326Z,96377.06
2023-04-21T19:42:41.875Z,96375.34
2023-04-21T19:45:13.986Z,96374.13
2023-04-21T19:47:45.775Z,96376.97
2023-04-21T19:50:18.029Z,96372.78
2023-04-21T19:52:50.354Z,96380.84
2023-04-21T19:55:22.171Z,96370.47
2023-04-21T19:57:54.049Z,96365.72
2023-04-21T20:00:26.240Z,96383.16
2023-04-21T20:02:58.677Z,96373.47
2023-04-21T20:05:30.531Z,96371.72
2023-04-21T20:08:02.347Z,96369.09
2023-04-21T20:10:34.170Z,96373.66
2023-04-21T20:13:06.176Z,96375.34
2023-04-21T20:15:39.601Z,96374.19
2023-04-21T20:18:11.317Z,96378.72
2023-04-21T20:20:43.160Z,96369.88
2023-04-21T20:23:15.087Z,96377.66
2023-04-21T20:25:46.730Z,96378.69
2023-04-21T20:28:19.192Z,96369.78
2023-04-21T20:30:50.806Z,96372.31
2023-04-21T20:33:22.688Z,96376.88
2023-04-21T20:35:54.536Z,96370.81
2023-04-21T20:38:26.154Z,96362.84
2023-04-21T20:40:57.768Z,96355.25
2023-04-21T20:43:29.567Z,96356.50
2023-04-21T20:46:01.420Z,96368.81
2023-04-21T20:48:33.179Z,96364.69
2023-04-21T20:51:04.885Z,96373.22
2023-04-21T20:53:36.610Z,96359.34
2023-04-21T20:56:08.465Z,96363.88
2023-04-21T20:58:40.271Z,96367.75
2023-04-21T21:01:12.106Z,96371.16
2023-04-21T21:03:44.814Z,96377.88
2023-04-21T21:06:16.641Z,96374.59
2023-04-21T21:08:48.417Z,96380.69
2023-04-21T21:11:20.354Z,96384.31
2023-04-21T21:13:52.319Z,96384.63
2023-04-21T21:16:24.116Z,96383.78
2023-04-21T21:18:55.893Z,96380.91
2023-04-21T21:21:27.702Z,96380.47
2023-04-21T21:23:59.429Z,96378.88
2023-04-21T21:26:31.292Z,96378.16
2023-04-21T21:29:03.202Z,96381.69
2023-04-21T21:31:35.008Z,96379.38
2023-04-21T21:34:06.776Z,96385.75
2023-04-21T21:36:38.753Z,96387.63
2023-04-21T21:39:11.403Z,96382.97
2023-04-21T21:41:43.248Z,96387.22
2023-04-21T21:44:15.058Z,96389.19
2023-04-21T21:46:46.965Z,96396.31
2023-04-21T21:49:19.895Z,96393.09
2023-04-21T21:51:51.983Z,96392.59
2023-04-21T21:54:23.897Z,96398.44
2023-04-21T21:56:55.638Z,96397.16
2023-04-21T21:59:27.811Z,96392.03
2023-04-21T22:01:59.585Z,96386.38
2023-04-21T22:04:31.636Z,96392.13
2023-04-21T22:07:03.390Z,96379.66
2023-04-21T22:09:35.427Z,96387.44
2023-04-21T22:12:07.390Z,96384.47
2023-04-21T22:14:39.337Z,96389.34
2023-04-21T22:17:11.160Z,96386.38
2023-04-21T22:19:42.932Z,96395.66
2023-04-21T22:22:15.288Z,96383.72
2023-04-21T22:24:47.216Z,96383.72
2023-04-21T22:27:18.952Z,96381.34
2023-04-21T22:29:50.723Z,96393.47
2023-04-21T22:32:23.185Z,96388.72
2023-04-21T22:34:54.855Z,96393.16
2023-04-21T22:37:27.814Z,96389.78
2023-04-21T22:39:59.941Z,96389.94
2023-04-21T22:42:32.566Z,96391.25
2023-04-21T22:45:05.061Z,96387.00
2023-04-21T22:47:37.071Z,96395.56
2023-04-21T22:50:09.428Z,96394.09
2023-04-21T22:52:41.100Z,96401.00
2023-04-21T22:55:12.730Z,96394.34
2023-04-21T22:57:44.819Z,96398.03
2023-04-21T23:00:16.649Z,96396.25
2023-04-21T23:02:48.345Z,96400.47
2023-04-21T23:05:20.077Z,96391.44
2023-04-21T23:07:51.677Z,96398.00
2023-04-21T23:10:23.624Z,96393.38
2023-04-21T23:12:56.002Z,96396.97
2023-04-21T23:15:27.807Z,96402.72
2023-04-21T23:17:59.494Z,96393.16
2023-04-21T23:20:31.836Z,96393.69
2023-04-21T23:23:03.807Z,96388.03
2023-04-21T23:25:35.584Z,96391.41
2023-04-21T23:28:07.285Z,96390.06
2023-04-21T23:30:40.156Z,96386.38
2023-04-21T23:33:12.122Z,96393.59
2023-04-21T23:35:45.527Z,96384.44
2023-04-21T23:38:17.248Z,96391.59
2023-04-21T23:40:49.036Z,96396.06
2023-04-21T23:43:20.805Z,96389.31
2023-04-21T23:45:52.730Z,96389.31
2023-04-21T23:48:24.657Z,96387.78
2023-04-21T23:50:56.796Z,96387.41
2023-04-21T23:53:28.644Z,96391.31
2023-04-21T23:56:00.627Z,96381.84
2023-04-21T23:58:32.599Z,96383.22
